sensor_id;sensor_type;location;lat;lon;timestamp;P1;durP1;ratioP1;P2;durP2;ratioP2
10088;SDS011;51898;49.864;8.550;2022-09-09T00:01:37;2.70;;;1.67;;
10088;SDS011;51898;49.864;8.550;2022-09-09T00:05:08;2.20;;;2.00;;
10088;SDS011;51898;49.864;8.550;2022-09-09T00:08:19;2.00;;;1.80;;
10088;SDS011;51898;49.864;8.550;2022-09-09T00:11:26;3.70;;;1.80;;
10088;SDS011;51898;49.864;8.550;2022-09-09T00:24:55;5.13;;;1.80;;
10088;SDS011;51898;49.864;8.550;2022-09-09T00:28:07;3.10;;;2.27;;
10088;SDS011;51898;49.864;8.550;2022-09-09T00:31:20;3.40;;;2.10;;
10088;SDS011;51898;49.864;8.550;2022-09-09T00:34:27;4.63;;;2.00;;
10088;SDS011;51898;49.864;8.550;2022-09-09T00:37:29;1.73;;;1.63;;
10088;SDS011;51898;49.864;8.550;2022-09-09T00:40:34;4.27;;;2.23;;
10088;SDS011;51898;49.864;8.550;2022-09-09T00:43:39;2.53;;;2.10;;
10088;SDS011;51898;49.864;8.550;2022-09-09T00:50:13;4.27;;;2.20;;
10088;SDS011;51898;49.864;8.550;2022-09-09T01:00:31;2.60;;;2.00;;
10088;SDS011;51898;49.864;8.550;2022-09-09T01:03:52;4.43;;;2.70;;
10088;SDS011;51898;49.864;8.550;2022-09-09T01:06:56;4.03;;;2.30;;
10088;SDS011;51898;49.864;8.550;2022-09-09T01:10:11;3.70;;;2.23;;
10088;SDS011;51898;49.864;8.550;2022-09-09T01:13:34;2.60;;;1.97;;
10088;SDS011;51898;49.864;8.550;2022-09-09T01:16:37;2.53;;;1.97;;
10088;SDS011;51898;49.864;8.550;2022-09-09T01:22:47;4.70;;;2.13;;
10088;SDS011;51898;49.864;8.550;2022-09-09T01:26:15;3.57;;;1.93;;
10088;SDS011;51898;49.864;8.550;2022-09-09T01:29:22;4.20;;;1.97;;
10088;SDS011;51898;49.864;8.550;2022-09-09T01:32:37;5.87;;;2.67;;
10088;SDS011;51898;49.864;8.550;2022-09-09T01:36:00;8.30;;;2.43;;
10088;SDS011;51898;49.864;8.550;2022-09-09T01:39:08;6.70;;;2.20;;
10088;SDS011;51898;49.864;8.550;2022-09-09T01:42:12;2.80;;;2.50;;
10088;SDS011;51898;49.864;8.550;2022-09-09T01:45:16;2.40;;;2.10;;
10088;SDS011;51898;49.864;8.550;2022-09-09T01:48:17;7.23;;;2.57;;
10088;SDS011;51898;49.864;8.550;2022-09-09T01:51:20;3.70;;;2.50;;
10088;SDS011;51898;49.864;8.550;2022-09-09T01:54:23;3.47;;;2.20;;
10088;SDS011;51898;49.864;8.550;2022-09-09T01:57:29;4.47;;;2.40;;
10088;SDS011;51898;49.864;8.550;2022-09-09T02:00:35;6.60;;;2.67;;
10088;SDS011;51898;49.864;8.550;2022-09-09T02:03:40;4.77;;;2.27;;
10088;SDS011;51898;49.864;8.550;2022-09-09T02:06:48;2.57;;;2.20;;
10088;SDS011;51898;49.864;8.550;2022-09-09T02:09:57;5.20;;;2.00;;
10088;SDS011;51898;49.864;8.550;2022-09-09T02:13:11;7.47;;;2.40;;
10088;SDS011;51898;49.864;8.550;2022-09-09T02:19:18;2.80;;;2.17;;
10088;SDS011;51898;49.864;8.550;2022-09-09T02:22:26;8.17;;;2.50;;
10088;SDS011;51898;49.864;8.550;2022-09-09T02:25:30;6.10;;;2.30;;
10088;SDS011;51898;49.864;8.550;2022-09-09T02:28:36;6.53;;;2.30;;
10088;SDS011;51898;49.864;8.550;2022-09-09T02:31:41;8.47;;;2.40;;
10088;SDS011;51898;49.864;8.550;2022-09-09T02:34:49;10.10;;;2.73;;
10088;SDS011;51898;49.864;8.550;2022-09-09T02:37:58;5.63;;;1.97;;
10088;SDS011;51898;49.864;8.550;2022-09-09T02:41:03;4.47;;;2.27;;
10088;SDS011;51898;49.864;8.550;2022-09-09T02:44:11;6.77;;;2.10;;
10088;SDS011;51898;49.864;8.550;2022-09-09T02:47:24;5.67;;;2.27;;
10088;SDS011;51898;49.864;8.550;2022-09-09T02:50:33;5.83;;;2.63;;
10088;SDS011;51898;49.864;8.550;2022-09-09T02:53:39;4.70;;;2.47;;
10088;SDS011;51898;49.864;8.550;2022-09-09T02:56:53;3.57;;;2.53;;
10088;SDS011;51898;49.864;8.550;2022-09-09T02:59:58;2.90;;;2.10;;
10088;SDS011;51898;49.864;8.550;2022-09-09T03:03:02;4.57;;;2.00;;
10088;SDS011;51898;49.864;8.550;2022-09-09T03:06:05;3.03;;;2.47;;
10088;SDS011;51898;49.864;8.550;2022-09-09T03:09:06;3.63;;;2.17;;
10088;SDS011;51898;49.864;8.550;2022-09-09T03:12:11;7.33;;;2.50;;
10088;SDS011;51898;49.864;8.550;2022-09-09T03:15:13;3.30;;;2.20;;
10088;SDS011;51898;49.864;8.550;2022-09-09T03:18:15;5.90;;;2.80;;
10088;SDS011;51898;49.864;8.550;2022-09-09T03:21:17;6.87;;;2.80;;
10088;SDS011;51898;49.864;8.550;2022-09-09T03:24:19;5.40;;;2.60;;
10088;SDS011;51898;49.864;8.550;2022-09-09T03:27:21;3.30;;;2.70;;
10088;SDS011;51898;49.864;8.550;2022-09-09T03:30:26;7.60;;;2.97;;
10088;SDS011;51898;49.864;8.550;2022-09-09T03:33:28;6.27;;;2.30;;
10088;SDS011;51898;49.864;8.550;2022-09-09T03:36:31;2.53;;;2.30;;
10088;SDS011;51898;49.864;8.550;2022-09-09T03:39:33;6.43;;;3.13;;
10088;SDS011;51898;49.864;8.550;2022-09-09T03:42:36;4.17;;;2.50;;
10088;SDS011;51898;49.864;8.550;2022-09-09T03:45:38;3.70;;;2.23;;
10088;SDS011;51898;49.864;8.550;2022-09-09T03:48:40;5.30;;;2.57;;
10088;SDS011;51898;49.864;8.550;2022-09-09T03:51:41;5.10;;;2.90;;
10088;SDS011;51898;49.864;8.550;2022-09-09T03:54:43;5.10;;;2.70;;
10088;SDS011;51898;49.864;8.550;2022-09-09T03:57:45;4.73;;;2.30;;
10088;SDS011;51898;49.864;8.550;2022-09-09T04:00:53;4.20;;;2.53;;
10088;SDS011;51898;49.864;8.550;2022-09-09T04:03:56;3.57;;;2.57;;
10088;SDS011;51898;49.864;8.550;2022-09-09T04:06:59;7.33;;;2.70;;
10088;SDS011;51898;49.864;8.550;2022-09-09T04:10:00;4.10;;;2.57;;
10088;SDS011;51898;49.864;8.550;2022-09-09T04:13:03;5.67;;;2.43;;
10088;SDS011;51898;49.864;8.550;2022-09-09T04:16:05;4.87;;;2.60;;
10088;SDS011;51898;49.864;8.550;2022-09-09T04:19:07;6.13;;;2.50;;
10088;SDS011;51898;49.864;8.550;2022-09-09T04:22:09;4.37;;;2.40;;
10088;SDS011;51898;49.864;8.550;2022-09-09T04:25:10;4.50;;;2.27;;
10088;SDS011;51898;49.864;8.550;2022-09-09T04:28:13;5.27;;;2.50;;
10088;SDS011;51898;49.864;8.550;2022-09-09T04:31:16;3.57;;;2.47;;
10088;SDS011;51898;49.864;8.550;2022-09-09T04:34:21;3.00;;;1.87;;
10088;SDS011;51898;49.864;8.550;2022-09-09T04:37:23;3.77;;;2.50;;
10088;SDS011;51898;49.864;8.550;2022-09-09T04:40:25;5.30;;;2.57;;
10088;SDS011;51898;49.864;8.550;2022-09-09T04:43:27;11.10;;;2.77;;
10088;SDS011;51898;49.864;8.550;2022-09-09T04:46:29;3.90;;;2.57;;
10088;SDS011;51898;49.864;8.550;2022-09-09T04:49:30;7.13;;;2.80;;
10088;SDS011;51898;49.864;8.550;2022-09-09T04:52:33;4.10;;;2.80;;
10088;SDS011;51898;49.864;8.550;2022-09-09T04:55:38;4.30;;;2.13;;
10088;SDS011;51898;49.864;8.550;2022-09-09T04:58:43;3.80;;;2.33;;
10088;SDS011;51898;49.864;8.550;2022-09-09T05:01:48;7.20;;;2.80;;
10088;SDS011;51898;49.864;8.550;2022-09-09T05:04:51;5.33;;;3.07;;
10088;SDS011;51898;49.864;8.550;2022-09-09T05:07:52;4.20;;;2.37;;
10088;SDS011;51898;49.864;8.550;2022-09-09T05:10:54;6.23;;;2.60;;
10088;SDS011;51898;49.864;8.550;2022-09-09T05:13:56;4.70;;;2.70;;
10088;SDS011;51898;49.864;8.550;2022-09-09T05:16:58;5.77;;;2.53;;
10088;SDS011;51898;49.864;8.550;2022-09-09T05:19:59;3.23;;;1.87;;
10088;SDS011;51898;49.864;8.550;2022-09-09T05:23:01;3.10;;;2.73;;
10088;SDS011;51898;49.864;8.550;2022-09-09T05:26:03;4.00;;;1.73;;
10088;SDS011;51898;49.864;8.550;2022-09-09T05:29:05;5.47;;;2.17;;
10088;SDS011;51898;49.864;8.550;2022-09-09T05:32:07;4.00;;;2.13;;
10088;SDS011;51898;49.864;8.550;2022-09-09T05:35:15;3.30;;;1.83;;
10088;SDS011;51898;49.864;8.550;2022-09-09T05:38:17;6.33;;;2.00;;
10088;SDS011;51898;49.864;8.550;2022-09-09T05:41:19;4.70;;;1.90;;
10088;SDS011;51898;49.864;8.550;2022-09-09T05:44:24;9.77;;;2.47;;
10088;SDS011;51898;49.864;8.550;2022-09-09T05:47:31;4.40;;;2.20;;
10088;SDS011;51898;49.864;8.550;2022-09-09T05:50:33;5.47;;;2.27;;
10088;SDS011;51898;49.864;8.550;2022-09-09T05:53:34;4.60;;;1.70;;
10088;SDS011;51898;49.864;8.550;2022-09-09T05:56:36;4.10;;;2.10;;
10088;SDS011;51898;49.864;8.550;2022-09-09T05:59:38;4.27;;;2.00;;
10088;SDS011;51898;49.864;8.550;2022-09-09T06:02:39;2.60;;;2.10;;
10088;SDS011;51898;49.864;8.550;2022-09-09T06:05:42;3.53;;;1.80;;
10088;SDS011;51898;49.864;8.550;2022-09-09T06:08:44;5.97;;;1.80;;
10088;SDS011;51898;49.864;8.550;2022-09-09T06:11:46;7.57;;;2.03;;
10088;SDS011;51898;49.864;8.550;2022-09-09T06:14:47;5.53;;;1.90;;
10088;SDS011;51898;49.864;8.550;2022-09-09T06:17:53;10.40;;;1.90;;
10088;SDS011;51898;49.864;8.550;2022-09-09T06:21:00;4.70;;;2.20;;
10088;SDS011;51898;49.864;8.550;2022-09-09T06:24:05;5.90;;;2.00;;
10088;SDS011;51898;49.864;8.550;2022-09-09T06:27:08;6.90;;;1.63;;
10088;SDS011;51898;49.864;8.550;2022-09-09T06:30:10;6.63;;;2.27;;
10088;SDS011;51898;49.864;8.550;2022-09-09T06:33:12;6.23;;;2.27;;
10088;SDS011;51898;49.864;8.550;2022-09-09T06:36:14;4.50;;;1.80;;
10088;SDS011;51898;49.864;8.550;2022-09-09T06:39:19;3.97;;;1.70;;
10088;SDS011;51898;49.864;8.550;2022-09-09T06:42:20;2.20;;;1.60;;
10088;SDS011;51898;49.864;8.550;2022-09-09T06:45:22;3.77;;;1.87;;
10088;SDS011;51898;49.864;8.550;2022-09-09T06:48:23;4.30;;;1.53;;
10088;SDS011;51898;49.864;8.550;2022-09-09T06:51:30;4.53;;;1.67;;
10088;SDS011;51898;49.864;8.550;2022-09-09T06:54:32;3.57;;;1.60;;
10088;SDS011;51898;49.864;8.550;2022-09-09T06:57:36;3.40;;;1.60;;
10088;SDS011;51898;49.864;8.550;2022-09-09T07:00:38;7.23;;;1.90;;
10088;SDS011;51898;49.864;8.550;2022-09-09T07:03:40;3.07;;;1.60;;
10088;SDS011;51898;49.864;8.550;2022-09-09T07:06:44;3.47;;;1.70;;
10088;SDS011;51898;49.864;8.550;2022-09-09T07:09:47;7.30;;;2.13;;
10088;SDS011;51898;49.864;8.550;2022-09-09T07:12:50;2.97;;;1.63;;
10088;SDS011;51898;49.864;8.550;2022-09-09T07:15:53;1.60;;;1.50;;
10088;SDS011;51898;49.864;8.550;2022-09-09T07:18:54;2.83;;;1.80;;
10088;SDS011;51898;49.864;8.550;2022-09-09T07:21:58;5.73;;;1.87;;
10088;SDS011;51898;49.864;8.550;2022-09-09T07:25:00;5.00;;;1.90;;
10088;SDS011;51898;49.864;8.550;2022-09-09T07:28:03;2.23;;;1.50;;
10088;SDS011;51898;49.864;8.550;2022-09-09T07:31:05;7.20;;;1.90;;
10088;SDS011;51898;49.864;8.550;2022-09-09T07:34:07;10.57;;;1.93;;
10088;SDS011;51898;49.864;8.550;2022-09-09T07:37:08;2.80;;;1.37;;
10088;SDS011;51898;49.864;8.550;2022-09-09T07:40:12;6.63;;;2.17;;
10088;SDS011;51898;49.864;8.550;2022-09-09T07:43:14;4.10;;;1.90;;
10088;SDS011;51898;49.864;8.550;2022-09-09T07:46:18;3.20;;;1.83;;
10088;SDS011;51898;49.864;8.550;2022-09-09T07:49:21;7.03;;;2.37;;
10088;SDS011;51898;49.864;8.550;2022-09-09T07:52:33;4.97;;;1.63;;
10088;SDS011;51898;49.864;8.550;2022-09-09T07:55:35;3.47;;;1.73;;
10088;SDS011;51898;49.864;8.550;2022-09-09T07:58:37;4.43;;;1.97;;
10088;SDS011;51898;49.864;8.550;2022-09-09T08:01:41;4.40;;;1.73;;
10088;SDS011;51898;49.864;8.550;2022-09-09T08:04:51;4.33;;;1.77;;
10088;SDS011;51898;49.864;8.550;2022-09-09T08:07:53;4.97;;;1.70;;
10088;SDS011;51898;49.864;8.550;2022-09-09T08:11:00;7.27;;;1.77;;
10088;SDS011;51898;49.864;8.550;2022-09-09T08:14:23;7.27;;;2.03;;
10088;SDS011;51898;49.864;8.550;2022-09-09T08:17:25;5.83;;;1.90;;
10088;SDS011;51898;49.864;8.550;2022-09-09T08:20:27;4.20;;;1.67;;
10088;SDS011;51898;49.864;8.550;2022-09-09T08:23:28;6.30;;;2.57;;
10088;SDS011;51898;49.864;8.550;2022-09-09T08:26:31;4.07;;;1.87;;
10088;SDS011;51898;49.864;8.550;2022-09-09T08:29:38;8.37;;;1.50;;
10088;SDS011;51898;49.864;8.550;2022-09-09T08:32:40;4.00;;;1.90;;
10088;SDS011;51898;49.864;8.550;2022-09-09T08:35:50;3.60;;;1.87;;
10088;SDS011;51898;49.864;8.550;2022-09-09T08:38:52;4.00;;;1.90;;
10088;SDS011;51898;49.864;8.550;2022-09-09T08:41:58;4.50;;;1.53;;
10088;SDS011;51898;49.864;8.550;2022-09-09T08:48:29;4.17;;;1.93;;
10088;SDS011;51898;49.864;8.550;2022-09-09T08:52:00;5.17;;;2.57;;
10088;SDS011;51898;49.864;8.550;2022-09-09T08:58:25;2.83;;;1.77;;
10088;SDS011;51898;49.864;8.550;2022-09-09T09:01:47;6.77;;;1.97;;
10088;SDS011;51898;49.864;8.550;2022-09-09T09:05:06;10.80;;;3.80;;
10088;SDS011;51898;49.864;8.550;2022-09-09T09:09:05;6.43;;;3.07;;
10088;SDS011;51898;49.864;8.550;2022-09-09T09:12:02;6.70;;;2.47;;
10088;SDS011;51898;49.864;8.550;2022-09-09T09:15:18;6.87;;;2.50;;
10088;SDS011;51898;49.864;8.550;2022-09-09T09:18:22;4.20;;;2.33;;
10088;SDS011;51898;49.864;8.550;2022-09-09T09:24:52;9.10;;;2.50;;
10088;SDS011;51898;49.864;8.550;2022-09-09T09:28:23;7.27;;;2.10;;
10088;SDS011;51898;49.864;8.550;2022-09-09T09:31:27;5.40;;;2.20;;
10088;SDS011;51898;49.864;8.550;2022-09-09T09:34:29;5.90;;;2.00;;
10088;SDS011;51898;49.864;8.550;2022-09-09T09:37:31;5.07;;;1.90;;
10088;SDS011;51898;49.864;8.550;2022-09-09T09:40:36;7.03;;;2.20;;
10088;SDS011;51898;49.864;8.550;2022-09-09T09:43:40;6.03;;;1.97;;
10088;SDS011;51898;49.864;8.550;2022-09-09T09:46:43;7.60;;;2.20;;
10088;SDS011;51898;49.864;8.550;2022-09-09T09:49:52;5.70;;;1.63;;
10088;SDS011;51898;49.864;8.550;2022-09-09T09:53:00;4.73;;;2.10;;
10088;SDS011;51898;49.864;8.550;2022-09-09T09:56:05;6.70;;;1.83;;
10088;SDS011;51898;49.864;8.550;2022-09-09T09:59:19;3.60;;;1.57;;
10088;SDS011;51898;49.864;8.550;2022-09-09T10:02:42;8.53;;;1.73;;
10088;SDS011;51898;49.864;8.550;2022-09-09T10:05:46;5.53;;;2.00;;
10088;SDS011;51898;49.864;8.550;2022-09-09T10:08:48;7.83;;;2.03;;
10088;SDS011;51898;49.864;8.550;2022-09-09T10:11:55;9.63;;;2.47;;
10088;SDS011;51898;49.864;8.550;2022-09-09T10:15:30;5.83;;;1.80;;
10088;SDS011;51898;49.864;8.550;2022-09-09T10:22:08;3.97;;;1.53;;
10088;SDS011;51898;49.864;8.550;2022-09-09T10:25:43;4.50;;;1.87;;
10088;SDS011;51898;49.864;8.550;2022-09-09T10:35:35;4.20;;;1.77;;
10088;SDS011;51898;49.864;8.550;2022-09-09T10:39:06;5.40;;;2.10;;
10088;SDS011;51898;49.864;8.550;2022-09-09T10:42:16;4.83;;;1.90;;
10088;SDS011;51898;49.864;8.550;2022-09-09T10:45:30;4.70;;;1.90;;
10088;SDS011;51898;49.864;8.550;2022-09-09T10:52:29;9.67;;;1.80;;
10088;SDS011;51898;49.864;8.550;2022-09-09T10:55:48;4.87;;;1.63;;
10088;SDS011;51898;49.864;8.550;2022-09-09T10:58:56;6.70;;;1.80;;
10088;SDS011;51898;49.864;8.550;2022-09-09T11:08:20;4.73;;;1.80;;
10088;SDS011;51898;49.864;8.550;2022-09-09T11:11:32;3.50;;;1.80;;
10088;SDS011;51898;49.864;8.550;2022-09-09T11:14:45;7.63;;;2.43;;
10088;SDS011;51898;49.864;8.550;2022-09-09T11:17:56;4.50;;;1.70;;
10088;SDS011;51898;49.864;8.550;2022-09-09T11:21:02;2.57;;;1.50;;
10088;SDS011;51898;49.864;8.550;2022-09-09T11:24:10;4.40;;;2.00;;
10088;SDS011;51898;49.864;8.550;2022-09-09T11:30:34;9.00;;;2.27;;
10088;SDS011;51898;49.864;8.550;2022-09-09T11:34:07;4.93;;;1.93;;
10088;SDS011;51898;49.864;8.550;2022-09-09T11:37:35;3.83;;;2.00;;
10088;SDS011;51898;49.864;8.550;2022-09-09T11:40:44;7.50;;;1.83;;
10088;SDS011;51898;49.864;8.550;2022-09-09T11:43:48;2.80;;;2.03;;
10088;SDS011;51898;49.864;8.550;2022-09-09T11:46:53;3.90;;;1.87;;
10088;SDS011;51898;49.864;8.550;2022-09-09T11:53:18;7.63;;;2.20;;
10088;SDS011;51898;49.864;8.550;2022-09-09T11:59:28;4.63;;;2.00;;
10088;SDS011;51898;49.864;8.550;2022-09-09T12:02:34;4.00;;;1.77;;
10088;SDS011;51898;49.864;8.550;2022-09-09T12:05:41;4.90;;;2.03;;
10088;SDS011;51898;49.864;8.550;2022-09-09T12:08:50;2.63;;;1.60;;
10088;SDS011;51898;49.864;8.550;2022-09-09T12:15:18;4.03;;;1.70;;
10088;SDS011;51898;49.864;8.550;2022-09-09T12:21:41;4.27;;;2.10;;
10088;SDS011;51898;49.864;8.550;2022-09-09T12:24:59;8.80;;;2.20;;
10088;SDS011;51898;49.864;8.550;2022-09-09T12:35:15;2.50;;;1.63;;
10088;SDS011;51898;49.864;8.550;2022-09-09T12:38:29;3.33;;;1.73;;
10088;SDS011;51898;49.864;8.550;2022-09-09T12:41:35;3.93;;;1.70;;
10088;SDS011;51898;49.864;8.550;2022-09-09T12:44:37;3.80;;;2.07;;
10088;SDS011;51898;49.864;8.550;2022-09-09T12:47:40;2.13;;;1.93;;
10088;SDS011;51898;49.864;8.550;2022-09-09T12:50:50;2.80;;;1.73;;
10088;SDS011;51898;49.864;8.550;2022-09-09T12:53:54;3.20;;;1.80;;
10088;SDS011;51898;49.864;8.550;2022-09-09T12:56:56;2.30;;;1.40;;
10088;SDS011;51898;49.864;8.550;2022-09-09T13:03:33;4.30;;;1.40;;
10088;SDS011;51898;49.864;8.550;2022-09-09T13:06:44;2.37;;;1.07;;
10088;SDS011;51898;49.864;8.550;2022-09-09T13:09:46;3.47;;;1.30;;
10088;SDS011;51898;49.864;8.550;2022-09-09T13:12:48;3.00;;;1.10;;
10088;SDS011;51898;49.864;8.550;2022-09-09T13:15:51;1.83;;;1.10;;
10088;SDS011;51898;49.864;8.550;2022-09-09T13:18:55;1.43;;;0.90;;
10088;SDS011;51898;49.864;8.550;2022-09-09T13:21:57;1.40;;;1.00;;
10088;SDS011;51898;49.864;8.550;2022-09-09T13:28:23;1.67;;;0.90;;
10088;SDS011;51898;49.864;8.550;2022-09-09T13:31:36;2.27;;;1.10;;
10088;SDS011;51898;49.864;8.550;2022-09-09T13:34:38;1.93;;;1.10;;
10088;SDS011;51898;49.864;8.550;2022-09-09T13:37:39;2.20;;;0.90;;
10088;SDS011;51898;49.864;8.550;2022-09-09T13:41:01;9.10;;;2.77;;
10088;SDS011;51898;49.864;8.550;2022-09-09T13:44:05;1.90;;;1.37;;
10088;SDS011;51898;49.864;8.550;2022-09-09T13:50:27;2.03;;;1.00;;
10088;SDS011;51898;49.864;8.550;2022-09-09T13:53:30;6.97;;;1.53;;
10088;SDS011;51898;49.864;8.550;2022-09-09T13:56:32;1.33;;;1.10;;
10088;SDS011;51898;49.864;8.550;2022-09-09T13:59:36;1.97;;;0.90;;
10088;SDS011;51898;49.864;8.550;2022-09-09T14:02:58;6.73;;;1.40;;
10088;SDS011;51898;49.864;8.550;2022-09-09T14:06:02;2.40;;;1.20;;
10088;SDS011;51898;49.864;8.550;2022-09-09T14:09:07;2.57;;;1.20;;
10088;SDS011;51898;49.864;8.550;2022-09-09T14:12:12;1.70;;;1.10;;
10088;SDS011;51898;49.864;8.550;2022-09-09T14:15:15;1.40;;;1.10;;
10088;SDS011;51898;49.864;8.550;2022-09-09T14:18:17;9.83;;;1.50;;
10088;SDS011;51898;49.864;8.550;2022-09-09T14:21:19;1.83;;;1.10;;
10088;SDS011;51898;49.864;8.550;2022-09-09T14:24:21;2.30;;;1.20;;
10088;SDS011;51898;49.864;8.550;2022-09-09T14:27:22;2.30;;;1.10;;
10088;SDS011;51898;49.864;8.550;2022-09-09T14:30:24;4.27;;;1.50;;
10088;SDS011;51898;49.864;8.550;2022-09-09T14:33:26;1.50;;;1.00;;
10088;SDS011;51898;49.864;8.550;2022-09-09T14:36:30;1.67;;;1.30;;
10088;SDS011;51898;49.864;8.550;2022-09-09T14:39:31;3.53;;;1.40;;
10088;SDS011;51898;49.864;8.550;2022-09-09T14:42:33;1.93;;;1.63;;
10088;SDS011;51898;49.864;8.550;2022-09-09T14:45:35;3.73;;;1.20;;
10088;SDS011;51898;49.864;8.550;2022-09-09T14:48:38;8.23;;;1.50;;
10088;SDS011;51898;49.864;8.550;2022-09-09T14:51:41;1.80;;;1.33;;
10088;SDS011;51898;49.864;8.550;2022-09-09T14:54:43;4.47;;;2.10;;
10088;SDS011;51898;49.864;8.550;2022-09-09T14:57:45;4.57;;;1.70;;
10088;SDS011;51898;49.864;8.550;2022-09-09T15:00:47;7.67;;;1.63;;
10088;SDS011;51898;49.864;8.550;2022-09-09T15:03:56;1.60;;;1.20;;
10088;SDS011;51898;49.864;8.550;2022-09-09T15:06:59;3.77;;;1.37;;
10088;SDS011;51898;49.864;8.550;2022-09-09T15:10:00;3.53;;;1.60;;
10088;SDS011;51898;49.864;8.550;2022-09-09T15:13:03;4.93;;;1.30;;
10088;SDS011;51898;49.864;8.550;2022-09-09T15:16:07;2.93;;;1.43;;
10088;SDS011;51898;49.864;8.550;2022-09-09T15:19:19;7.60;;;1.50;;
10088;SDS011;51898;49.864;8.550;2022-09-09T15:22:21;4.67;;;1.37;;
10088;SDS011;51898;49.864;8.550;2022-09-09T15:25:23;5.87;;;1.87;;
10088;SDS011;51898;49.864;8.550;2022-09-09T15:28:26;5.00;;;1.60;;
10088;SDS011;51898;49.864;8.550;2022-09-09T15:31:29;3.97;;;1.30;;
10088;SDS011;51898;49.864;8.550;2022-09-09T15:34:33;4.73;;;1.27;;
10088;SDS011;51898;49.864;8.550;2022-09-09T15:37:35;5.23;;;1.43;;
10088;SDS011;51898;49.864;8.550;2022-09-09T15:40:37;4.13;;;2.10;;
10088;SDS011;51898;49.864;8.550;2022-09-09T15:43:42;2.30;;;1.20;;
10088;SDS011;51898;49.864;8.550;2022-09-09T15:46:48;8.40;;;1.57;;
10088;SDS011;51898;49.864;8.550;2022-09-09T15:49:51;2.83;;;1.20;;
10088;SDS011;51898;49.864;8.550;2022-09-09T15:52:52;13.50;;;1.77;;
10088;SDS011;51898;49.864;8.550;2022-09-09T15:55:57;2.40;;;1.30;;
10088;SDS011;51898;49.864;8.550;2022-09-09T15:59:00;3.40;;;1.83;;
10088;SDS011;51898;49.864;8.550;2022-09-09T16:02:04;5.77;;;1.33;;
10088;SDS011;51898;49.864;8.550;2022-09-09T16:05:06;3.40;;;1.40;;
10088;SDS011;51898;49.864;8.550;2022-09-09T16:08:08;4.40;;;1.70;;
10088;SDS011;51898;49.864;8.550;2022-09-09T16:11:11;4.60;;;1.50;;
10088;SDS011;51898;49.864;8.550;2022-09-09T16:14:17;2.90;;;1.73;;
10088;SDS011;51898;49.864;8.550;2022-09-09T16:17:18;3.03;;;1.37;;
10088;SDS011;51898;49.864;8.550;2022-09-09T16:20:21;2.43;;;1.10;;
10088;SDS011;51898;49.864;8.550;2022-09-09T16:23:23;16.20;;;2.00;;
10088;SDS011;51898;49.864;8.550;2022-09-09T16:26:25;3.13;;;1.00;;
10088;SDS011;51898;49.864;8.550;2022-09-09T16:29:28;1.70;;;0.97;;
10088;SDS011;51898;49.864;8.550;2022-09-09T16:32:30;2.73;;;1.23;;
10088;SDS011;51898;49.864;8.550;2022-09-09T16:35:31;2.50;;;1.07;;
10088;SDS011;51898;49.864;8.550;2022-09-09T16:38:37;3.43;;;1.30;;
10088;SDS011;51898;49.864;8.550;2022-09-09T16:41:40;2.30;;;1.07;;
10088;SDS011;51898;49.864;8.550;2022-09-09T16:44:44;3.17;;;0.90;;
10088;SDS011;51898;49.864;8.550;2022-09-09T16:47:46;1.70;;;1.13;;
10088;SDS011;51898;49.864;8.550;2022-09-09T16:50:49;1.83;;;1.07;;
10088;SDS011;51898;49.864;8.550;2022-09-09T16:53:51;3.40;;;1.50;;
10088;SDS011;51898;49.864;8.550;2022-09-09T16:56:54;4.83;;;1.90;;
10088;SDS011;51898;49.864;8.550;2022-09-09T16:59:56;1.73;;;1.37;;
10088;SDS011;51898;49.864;8.550;2022-09-09T17:03:00;3.70;;;2.10;;
10088;SDS011;51898;49.864;8.550;2022-09-09T17:06:02;3.23;;;1.50;;
10088;SDS011;51898;49.864;8.550;2022-09-09T17:09:10;7.80;;;1.50;;
10088;SDS011;51898;49.864;8.550;2022-09-09T17:12:12;6.10;;;1.80;;
10088;SDS011;51898;49.864;8.550;2022-09-09T17:15:13;4.03;;;2.20;;
10088;SDS011;51898;49.864;8.550;2022-09-09T17:18:16;3.83;;;1.63;;
10088;SDS011;51898;49.864;8.550;2022-09-09T17:21:19;5.63;;;1.40;;
10088;SDS011;51898;49.864;8.550;2022-09-09T17:24:22;4.40;;;1.97;;
10088;SDS011;51898;49.864;8.550;2022-09-09T17:27:24;4.17;;;1.97;;
10088;SDS011;51898;49.864;8.550;2022-09-09T17:30:26;2.50;;;1.60;;
10088;SDS011;51898;49.864;8.550;2022-09-09T17:33:28;3.53;;;1.63;;
10088;SDS011;51898;49.864;8.550;2022-09-09T17:36:34;4.70;;;1.60;;
10088;SDS011;51898;49.864;8.550;2022-09-09T17:39:37;3.00;;;1.57;;
10088;SDS011;51898;49.864;8.550;2022-09-09T17:42:39;2.90;;;2.10;;
10088;SDS011;51898;49.864;8.550;2022-09-09T17:45:41;4.97;;;2.70;;
10088;SDS011;51898;49.864;8.550;2022-09-09T17:48:43;2.30;;;2.07;;
10088;SDS011;51898;49.864;8.550;2022-09-09T17:51:46;2.90;;;2.10;;
10088;SDS011;51898;49.864;8.550;2022-09-09T17:54:47;4.30;;;2.60;;
10088;SDS011;51898;49.864;8.550;2022-09-09T17:57:50;4.97;;;2.50;;
10088;SDS011;51898;49.864;8.550;2022-09-09T18:00:52;2.50;;;1.40;;
10088;SDS011;51898;49.864;8.550;2022-09-09T18:03:54;4.77;;;1.70;;
10088;SDS011;51898;49.864;8.550;2022-09-09T18:06:59;5.17;;;1.80;;
10088;SDS011;51898;49.864;8.550;2022-09-09T18:10:02;2.17;;;1.30;;
10088;SDS011;51898;49.864;8.550;2022-09-09T18:13:03;4.27;;;1.50;;
10088;SDS011;51898;49.864;8.550;2022-09-09T18:16:07;4.33;;;1.37;;
10088;SDS011;51898;49.864;8.550;2022-09-09T18:19:10;3.33;;;1.20;;
10088;SDS011;51898;49.864;8.550;2022-09-09T18:22:14;2.37;;;1.20;;
10088;SDS011;51898;49.864;8.550;2022-09-09T18:25:16;1.77;;;1.40;;
10088;SDS011;51898;49.864;8.550;2022-09-09T18:28:19;3.73;;;1.00;;
10088;SDS011;51898;49.864;8.550;2022-09-09T18:31:25;1.97;;;1.13;;
10088;SDS011;51898;49.864;8.550;2022-09-09T18:34:29;2.00;;;1.20;;
10088;SDS011;51898;49.864;8.550;2022-09-09T18:37:30;2.87;;;1.07;;
10088;SDS011;51898;49.864;8.550;2022-09-09T18:40:34;3.50;;;1.00;;
10088;SDS011;51898;49.864;8.550;2022-09-09T18:43:35;2.30;;;1.53;;
10088;SDS011;51898;49.864;8.550;2022-09-09T18:46:37;3.40;;;1.20;;
10088;SDS011;51898;49.864;8.550;2022-09-09T18:49:39;1.20;;;1.03;;
10088;SDS011;51898;49.864;8.550;2022-09-09T18:52:41;2.50;;;1.67;;
10088;SDS011;51898;49.864;8.550;2022-09-09T18:55:43;3.07;;;1.40;;
10088;SDS011;51898;49.864;8.550;2022-09-09T18:58:50;3.13;;;0.97;;
10088;SDS011;51898;49.864;8.550;2022-09-09T19:01:55;2.43;;;1.20;;
10088;SDS011;51898;49.864;8.550;2022-09-09T19:04:57;2.13;;;1.40;;
10088;SDS011;51898;49.864;8.550;2022-09-09T19:07:59;1.43;;;1.20;;
10088;SDS011;51898;49.864;8.550;2022-09-09T19:11:02;1.17;;;1.07;;
10088;SDS011;51898;49.864;8.550;2022-09-09T19:14:05;6.87;;;1.90;;
10088;SDS011;51898;49.864;8.550;2022-09-09T19:17:10;4.03;;;1.30;;
10088;SDS011;51898;49.864;8.550;2022-09-09T19:20:13;2.00;;;1.30;;
10088;SDS011;51898;49.864;8.550;2022-09-09T19:23:16;5.33;;;1.27;;
10088;SDS011;51898;49.864;8.550;2022-09-09T19:26:18;1.77;;;1.10;;
10088;SDS011;51898;49.864;8.550;2022-09-09T19:29:21;3.43;;;1.40;;
10088;SDS011;51898;49.864;8.550;2022-09-09T19:32:24;2.63;;;0.93;;
10088;SDS011;51898;49.864;8.550;2022-09-09T19:35:55;2.60;;;1.07;;
10088;SDS011;51898;49.864;8.550;2022-09-09T19:39:02;2.70;;;1.40;;
10088;SDS011;51898;49.864;8.550;2022-09-09T19:42:04;6.30;;;1.53;;
10088;SDS011;51898;49.864;8.550;2022-09-09T19:45:06;5.63;;;1.60;;
10088;SDS011;51898;49.864;8.550;2022-09-09T19:48:10;2.80;;;1.73;;
10088;SDS011;51898;49.864;8.550;2022-09-09T19:51:13;1.87;;;1.10;;
10088;SDS011;51898;49.864;8.550;2022-09-09T19:54:17;3.03;;;1.20;;
10088;SDS011;51898;49.864;8.550;2022-09-09T19:57:18;3.53;;;1.30;;
10088;SDS011;51898;49.864;8.550;2022-09-09T20:00:20;4.30;;;1.50;;
10088;SDS011;51898;49.864;8.550;2022-09-09T20:03:22;1.30;;;1.17;;
10088;SDS011;51898;49.864;8.550;2022-09-09T20:06:28;4.83;;;1.53;;
10088;SDS011;51898;49.864;8.550;2022-09-09T20:09:36;2.00;;;1.03;;